Time;durP1;ratioP1;P1;durP2;ratioP2;P2;SDS_P1;SDS_P2;PMS_P1;PMS_P2;Temp;Humidity;BMP_temperature;BMP_pressure;BME280_temperature;BME280_humidity;BME280_pressure;Samples;Min_cycle;Max_cycle;Signal;HPM_P1;HPM_P2
2022/02/22 00:00:26;;;;;;;9.38;2.35;;;6.30;92.60;;;;;;2065656;28;20053;-90
2022/02/22 00:01:27;;;;;;;9.02;1.88;;;6.30;92.70;;;;;;2060701;28;20039;-90
2022/02/22 00:02:27;;;;;;;8.57;1.90;;;6.30;92.70;;;;;;2077496;28;20087;-91
2022/02/22 00:03:28;;;;;;;9.00;1.90;;;6.30;92.70;;;;;;2060118;28;20133;-90
2022/02/22 00:04:33;;;;;;;11.73;2.20;;;6.30;92.60;;;;;;2042974;28;20074;-90
2022/02/22 00:05:34;;;;;;;10.77;1.95;;;6.30;92.70;;;;;;2062636;28;20046;-90
2022/02/22 00:06:34;;;;;;;9.88;2.05;;;6.30;92.60;;;;;;2098089;28;20502;-90
2022/02/22 00:07:35;;;;;;;7.72;1.60;;;6.40;92.70;;;;;;2088658;28;20040;-90
2022/02/22 00:08:36;;;;;;;11.63;2.22;;;6.40;92.70;;;;;;2063824;28;20037;-90
2022/02/22 00:09:37;;;;;;;9.23;2.03;;;6.40;92.70;;;;;;2056673;28;20099;-89
2022/02/22 00:10:38;;;;;;;11.98;2.05;;;6.40;92.70;;;;;;2066129;28;20102;-90
2022/02/22 00:11:38;;;;;;;16.48;2.38;;;6.40;92.70;;;;;;2066009;28;20055;-90
2022/02/22 00:12:39;;;;;;;15.60;2.42;;;6.40;92.70;;;;;;2057178;28;20113;-90
2022/02/22 00:13:40;;;;;;;10.35;2.13;;;6.40;92.60;;;;;;2065008;28;20065;-90
2022/02/22 00:14:40;;;;;;;12.52;2.38;;;6.40;92.60;;;;;;2072160;28;20037;-90
2022/02/22 00:15:41;;;;;;;11.15;2.20;;;6.40;92.70;;;;;;2055680;28;20516;-90
2022/02/22 00:16:41;;;;;;;13.93;2.35;;;6.40;92.60;;;;;;2050148;28;20042;-90
2022/02/22 00:17:42;;;;;;;11.25;2.33;;;6.40;92.60;;;;;;2048446;28;20069;-91
2022/02/22 00:18:43;;;;;;;11.45;2.60;;;6.40;92.60;;;;;;2056854;28;20035;-90
2022/02/22 00:19:44;;;;;;;12.25;2.35;;;6.40;92.60;;;;;;2064413;28;20524;-90
2022/02/22 00:20:45;;;;;;;13.80;2.15;;;6.40;92.70;;;;;;2067015;28;20523;-90
2022/02/22 00:21:45;;;;;;;9.85;1.92;;;6.30;92.60;;;;;;2062767;28;20038;-90
2022/02/22 00:22:46;;;;;;;13.00;2.70;;;6.30;92.90;;;;;;2068067;28;20120;-90
2022/02/22 00:23:47;;;;;;;16.48;2.42;;;6.30;92.90;;;;;;2065252;28;20034;-90
2022/02/22 00:24:48;;;;;;;8.38;1.95;;;6.40;92.70;;;;;;2055724;28;20070;-90
2022/02/22 00:25:49;;;;;;;11.93;2.08;;;6.30;92.60;;;;;;2051192;28;20073;-90
2022/02/22 00:26:49;;;;;;;11.57;2.10;;;6.30;92.60;;;;;;2059935;28;20041;-90
2022/02/22 00:27:50;;;;;;;15.73;2.78;;;6.30;92.70;;;;;;2064936;28;20529;-89
2022/02/22 00:28:51;;;;;;;15.85;2.65;;;6.30;92.70;;;;;;2068917;28;20069;-90
2022/02/22 00:29:53;;;;;;;12.18;2.13;;;6.30;92.70;;;;;;2072325;28;20517;-90
2022/02/22 00:30:54;;;;;;;10.63;2.00;;;6.30;92.70;;;;;;2056532;28;20039;-90
2022/02/22 00:31:54;;;;;;;13.55;2.22;;;6.30;92.70;;;;;;2058767;28;20046;-90
2022/02/22 00:32:56;;;;;;;9.95;2.05;;;6.30;92.70;;;;;;2050301;28;20130;-90
2022/02/22 00:33:56;;;;;;;12.98;2.10;;;6.30;92.70;;;;;;2076250;28;20034;-90
2022/02/22 00:34:57;;;;;;;15.00;2.25;;;6.30;92.70;;;;;;2069601;28;20105;-90
2022/02/22 00:35:57;;;;;;;8.10;1.98;;;6.30;92.70;;;;;;2067410;28;20064;-90
2022/02/22 00:36:58;;;;;;;9.55;2.20;;;6.30;92.70;;;;;;2061672;28;20092;-91
2022/02/22 00:37:59;;;;;;;9.20;2.03;;;6.30;92.70;;;;;;2056354;28;20073;-90
2022/02/22 00:39:00;;;;;;;11.88;2.10;;;6.30;92.70;;;;;;2058097;28;20054;-90
2022/02/22 00:40:02;;;;;;;11.55;2.20;;;6.30;92.70;;;;;;2062097;28;20036;-90
2022/02/22 00:41:03;;;;;;;13.75;2.42;;;6.20;92.70;;;;;;2082495;28;20044;-90
2022/02/22 00:42:04;;;;;;;12.05;2.05;;;6.20;92.70;;;;;;2060854;28;20514;-90
2022/02/22 00:43:06;;;;;;;10.70;2.08;;;6.20;92.70;;;;;;2063650;28;20035;-89
2022/02/22 00:44:07;;;;;;;14.48;2.20;;;6.20;92.70;;;;;;2071833;28;20069;-90
2022/02/22 00:45:09;;;;;;;11.13;2.10;;;6.20;92.80;;;;;;2061622;28;20046;-90
2022/02/22 00:46:20;;;;;;;8.27;2.20;;;6.20;92.80;;;;;;2078173;28;20043;-91
2022/02/22 00:47:21;;;;;;;13.30;2.20;;;6.20;92.80;;;;;;2079616;28;20539;-91
2022/02/22 00:48:22;;;;;;;11.55;2.33;;;6.10;92.80;;;;;;2098809;28;20141;-91
2022/02/22 00:49:22;;;;;;;10.75;2.15;;;6.20;92.80;;;;;;2063718;28;20054;-91
2022/02/22 00:50:23;;;;;;;9.55;1.98;;;6.10;92.80;;;;;;2068528;28;20069;-91
2022/02/22 00:51:23;;;;;;;9.70;2.00;;;6.10;92.80;;;;;;2094024;28;20063;-91
2022/02/22 00:52:24;;;;;;;8.18;1.90;;;6.10;92.80;;;;;;2053693;28;20396;-91
2022/02/22 00:53:25;;;;;;;9.40;1.90;;;6.10;92.90;;;;;;2070820;28;20510;-91
2022/02/22 00:54:26;;;;;;;7.05;1.80;;;6.10;92.90;;;;;;2060468;28;20160;-91
2022/02/22 00:55:26;;;;;;;10.70;2.22;;;6.00;92.90;;;;;;2055768;28;20088;-91
2022/02/22 00:56:27;;;;;;;12.07;1.88;;;6.00;92.90;;;;;;2048116;28;20105;-91
2022/02/22 00:57:28;;;;;;;13.70;1.92;;;6.00;92.90;;;;;;2059090;28;20384;-91
2022/02/22 00:58:29;;;;;;;11.40;2.20;;;6.00;92.90;;;;;;2072084;28;20050;-91
2022/02/22 00:59:30;;;;;;;9.25;1.90;;;6.00;92.90;;;;;;2071008;28;20042;-91
2022/02/22 01:00:30;;;;;;;13.35;2.55;;;6.10;92.90;;;;;;2069206;28;20045;-91
2022/02/22 01:01:31;;;;;;;11.45;2.00;;;6.00;92.90;;;;;;2079587;28;20070;-91
2022/02/22 01:02:31;;;;;;;8.93;1.80;;;6.00;92.90;;;;;;2097901;28;20043;-89
2022/02/22 01:03:32;;;;;;;10.85;2.33;;;6.00;92.90;;;;;;2065285;28;20037;-89
2022/02/22 01:04:33;;;;;;;10.25;1.88;;;6.00;92.90;;;;;;2056454;28;20034;-88
2022/02/22 01:05:33;;;;;;;11.80;1.70;;;6.00;92.90;;;;;;2089534;28;20090;-88
2022/02/22 01:06:34;;;;;;;8.50;2.15;;;6.00;92.90;;;;;;2078102;28;20029;-90
2022/02/22 01:07:35;;;;;;;9.35;1.80;;;6.00;92.90;;;;;;2082657;28;20068;-89
2022/02/22 01:08:35;;;;;;;7.07;1.65;;;6.00;92.90;;;;;;2066418;28;20480;-89
2022/02/22 01:09:36;;;;;;;8.93;2.13;;;6.00;92.90;;;;;;2056074;28;20046;-89
2022/02/22 01:10:37;;;;;;;6.80;1.50;;;6.00;92.90;;;;;;2057254;28;20043;-89
2022/02/22 01:11:38;;;;;;;9.18;1.60;;;6.00;92.90;;;;;;2064001;28;20050;-89
2022/02/22 01:12:38;;;;;;;9.77;1.83;;;6.00;92.90;;;;;;2069485;28;20045;-88
2022/02/22 01:13:39;;;;;;;10.27;2.47;;;6.00;93.00;;;;;;2088687;28;20055;-88
2022/02/22 01:14:40;;;;;;;10.48;1.70;;;6.00;93.00;;;;;;2073867;28;20034;-89
2022/02/22 01:15:43;;;;;;;8.88;1.58;;;6.00;93.00;;;;;;2057748;28;20046;-89
2022/02/22 01:16:43;;;;;;;10.63;1.63;;;6.00;93.00;;;;;;2052337;28;20109;-89
2022/02/22 01:17:44;;;;;;;9.50;1.55;;;6.00;93.00;;;;;;2048169;28;20122;-88
2022/02/22 01:18:45;;;;;;;8.80;1.80;;;6.00;93.00;;;;;;2036363;28;20036;-89
2022/02/22 01:19:45;;;;;;;13.13;2.03;;;6.00;93.00;;;;;;2058187;28;20038;-89
2022/02/22 01:20:46;;;;;;;9.30;1.90;;;6.00;93.00;;;;;;2064117;28;20050;-89
2022/02/22 01:21:46;;;;;;;11.77;2.00;;;6.00;93.00;;;;;;2058904;28;20050;-89
2022/02/22 01:22:51;;;;;;;11.20;1.83;;;6.00;93.00;;;;;;2054747;28;20204;-89
2022/02/22 01:23:52;;;;;;;10.05;2.20;;;6.00;93.00;;;;;;2084044;28;20040;-89
2022/02/22 01:24:53;;;;;;;12.55;2.30;;;6.00;93.00;;;;;;2081802;28;20033;-89
2022/02/22 01:25:56;;;;;;;12.57;2.30;;;5.90;93.00;;;;;;2046849;28;20032;-89
2022/02/22 01:26:56;;;;;;;10.18;1.70;;;6.00;93.00;;;;;;2041206;28;20026;-89
2022/02/22 01:27:57;;;;;;;10.25;1.90;;;5.90;93.00;;;;;;2040597;28;20047;-89
2022/02/22 01:28:58;;;;;;;14.10;2.25;;;5.90;93.10;;;;;;2066808;28;20037;-89
2022/02/22 01:29:59;;;;;;;15.05;2.67;;;5.90;93.10;;;;;;2058886;28;20050;-89
2022/02/22 01:31:00;;;;;;;16.90;2.70;;;5.90;93.10;;;;;;2067480;28;20038;-88
2022/02/22 01:32:00;;;;;;;15.40;3.10;;;5.90;93.10;;;;;;2059700;28;20050;-88
2022/02/22 01:33:01;;;;;;;11.82;2.53;;;5.80;93.10;;;;;;2063090;28;20042;-88
2022/02/22 01:34:01;;;;;;;12.27;2.33;;;5.80;93.10;;;;;;2074229;28;20143;-89
2022/02/22 01:35:06;;;;;;;13.77;2.30;;;5.80;93.10;;;;;;2059796;28;20044;-89
2022/02/22 01:36:07;;;;;;;9.55;2.35;;;5.80;93.10;;;;;;2062548;28;20511;-89
2022/02/22 01:37:08;;;;;;;9.88;2.22;;;5.80;93.10;;;;;;2061680;28;20077;-89
2022/02/22 01:38:08;;;;;;;12.30;2.30;;;5.80;93.20;;;;;;2057874;28;20066;-88
2022/02/22 01:39:09;;;;;;;10.93;2.25;;;5.80;93.20;;;;;;2066975;28;20034;-88
2022/02/22 01:40:10;;;;;;;11.98;2.20;;;5.80;93.20;;;;;;2081126;28;20036;-88
2022/02/22 01:41:11;;;;;;;9.75;1.83;;;5.70;93.20;;;;;;2098130;28;20074;-89
2022/02/22 01:42:12;;;;;;;8.77;2.20;;;5.70;93.20;;;;;;2073589;28;20042;-88
2022/02/22 01:43:13;;;;;;;10.50;2.15;;;5.70;93.20;;;;;;2060798;28;20039;-89
2022/02/22 01:44:15;;;;;;;10.55;2.00;;;5.70;93.20;;;;;;2068751;28;20034;-88
2022/02/22 01:45:17;;;;;;;10.05;2.10;;;5.70;93.30;;;;;;2070459;28;20087;-89
2022/02/22 01:46:18;;;;;;;10.88;1.80;;;5.70;93.30;;;;;;2066334;28;20035;-89
2022/02/22 01:47:18;;;;;;;10.52;2.03;;;5.70;93.30;;;;;;2063671;28;20392;-89
2022/02/22 01:48:19;;;;;;;8.27;1.60;;;5.70;93.30;;;;;;2065485;28;20047;-89
2022/02/22 01:49:19;;;;;;;11.70;2.10;;;5.70;93.30;;;;;;2074102;28;20421;-89
2022/02/22 01:50:20;;;;;;;9.85;1.77;;;5.60;93.60;;;;;;2076785;28;20077;-89
2022/02/22 01:51:21;;;;;;;7.55;2.05;;;5.60;93.40;;;;;;2050725;28;20463;-88
2022/02/22 01:52:22;;;;;;;8.55;1.63;;;5.60;93.40;;;;;;2065887;28;20031;-88
2022/02/22 01:53:22;;;;;;;9.13;2.10;;;5.60;93.40;;;;;;2065877;28;20477;-88
2022/02/22 01:54:25;;;;;;;9.25;1.70;;;5.60;93.40;;;;;;2070512;28;20043;-88
2022/02/22 01:55:26;;;;;;;8.02;1.80;;;5.60;93.40;;;;;;2071831;28;20505;-89
2022/02/22 01:56:27;;;;;;;9.52;2.15;;;5.50;93.40;;;;;;2096912;28;20029;-89
2022/02/22 01:57:27;;;;;;;10.95;1.75;;;5.50;93.40;;;;;;2068306;28;20047;-89
2022/02/22 01:58:29;;;;;;;10.00;1.95;;;5.50;93.40;;;;;;2068065;28;20048;-88
2022/02/22 01:59:30;;;;;;;9.60;1.73;;;5.50;93.40;;;;;;2062619;28;20053;-88
2022/02/22 02:00:31;;;;;;;9.38;1.80;;;5.50;93.50;;;;;;2066697;28;20107;-89
2022/02/22 02:01:32;;;;;;;12.93;2.42;;;5.50;93.50;;;;;;2061856;28;20486;-89
2022/02/22 02:02:33;;;;;;;9.75;1.80;;;5.50;93.50;;;;;;2069823;28;20042;-89
2022/02/22 02:03:34;;;;;;;7.28;1.60;;;5.50;93.50;;;;;;2086836;28;20060;-89
2022/02/22 02:04:34;;;;;;;10.35;2.42;;;5.50;93.50;;;;;;2086159;28;20514;-88
2022/02/22 02:05:35;;;;;;;10.35;1.85;;;5.40;93.50;;;;;;2077923;28;20050;-89
2022/02/22 02:06:37;;;;;;;7.90;1.85;;;5.40;93.50;;;;;;2071524;28;20031;-89
2022/02/22 02:07:37;;;;;;;7.15;1.70;;;5.40;93.50;;;;;;2078246;28;20104;-90
2022/02/22 02:08:38;;;;;;;8.38;1.67;;;5.40;93.60;;;;;;2070504;28;20054;-90
2022/02/22 02:09:39;;;;;;;8.82;1.42;;;5.40;93.60;;;;;;2065798;28;20174;-89
2022/02/22 02:10:39;;;;;;;13.75;2.10;;;5.40;93.60;;;;;;2061447;28;20039;-89
2022/02/22 02:11:45;;;;;;;12.68;2.35;;;5.40;93.60;;;;;;2067628;28;20057;-90
2022/02/22 02:12:46;;;;;;;8.85;1.90;;;5.40;93.60;;;;;;2067459;28;20100;-90
2022/02/22 02:13:48;;;;;;;10.20;2.20;;;5.30;93.60;;;;;;2067336;28;20510;-89
2022/02/22 02:14:49;;;;;;;5.78;1.70;;;5.30;93.60;;;;;;2059911;28;20061;-89
2022/02/22 02:15:49;;;;;;;9.07;1.70;;;5.30;93.60;;;;;;2075571;28;20551;-89
2022/02/22 02:16:51;;;;;;;11.93;1.75;;;5.30;93.60;;;;;;2078727;28;20494;-90
2022/02/22 02:17:52;;;;;;;7.72;1.73;;;5.30;93.60;;;;;;2063814;28;20062;-90
2022/02/22 02:18:52;;;;;;;7.32;1.55;;;5.30;93.70;;;;;;2084912;28;20503;-90
2022/02/22 02:19:53;;;;;;;13.93;2.17;;;5.30;93.70;;;;;;2091837;28;20021;-90
2022/02/22 02:20:53;;;;;;;9.05;1.65;;;5.30;93.70;;;;;;2058370;28;20469;-90
2022/02/22 02:21:58;;;;;;;7.63;1.48;;;5.30;93.70;;;;;;2053316;28;20038;-90
2022/02/22 02:22:59;;;;;;;7.55;1.80;;;5.30;93.70;;;;;;2058440;28;20060;-90
2022/02/22 02:24:27;;;;;;;10.95;1.77;;;5.30;93.70;;;;;;2071148;28;20046;-90
2022/02/22 02:25:28;;;;;;;8.50;1.58;;;5.20;93.70;;;;;;2067582;28;20425;-90
2022/02/22 02:26:28;;;;;;;10.25;1.75;;;5.20;93.70;;;;;;2060801;28;20042;-89
2022/02/22 02:27:29;;;;;;;9.55;1.77;;;5.20;93.70;;;;;;2062284;28;20112;-89
2022/02/22 02:28:30;;;;;;;10.20;1.88;;;5.20;93.70;;;;;;2065537;28;20061;-89
2022/02/22 02:29:30;;;;;;;7.18;1.55;;;5.20;93.70;;;;;;2064828;28;20500;-89
2022/02/22 02:30:31;;;;;;;10.63;1.77;;;5.20;93.70;;;;;;2079528;28;20135;-90
2022/02/22 02:31:32;;;;;;;9.65;1.73;;;5.20;93.70;;;;;;2063868;28;20134;-89
2022/02/22 02:32:33;;;;;;;7.68;1.58;;;5.20;93.80;;;;;;2098992;28;20126;-89
2022/02/22 02:33:33;;;;;;;11.40;1.77;;;5.20;93.80;;;;;;2093732;28;20078;-89
2022/02/22 02:34:34;;;;;;;10.85;2.20;;;5.20;93.80;;;;;;2063528;28;20574;-90
2022/02/22 02:35:35;;;;;;;11.45;2.00;;;5.20;93.80;;;;;;2094944;28;20097;-89
2022/02/22 02:36:36;;;;;;;9.80;2.28;;;5.20;93.80;;;;;;2059985;28;20039;-89
2022/02/22 02:37:39;;;;;;;8.65;1.63;;;5.10;93.80;;;;;;2065217;28;20125;-89
2022/02/22 02:38:41;;;;;;;9.52;1.83;;;5.20;93.90;;;;;;2065362;28;20427;-89
2022/02/22 02:39:41;;;;;;;9.43;1.60;;;5.10;93.90;;;;;;2066369;28;20096;-90
2022/02/22 02:40:42;;;;;;;9.38;2.10;;;5.10;93.90;;;;;;2063918;28;20054;-89
2022/02/22 02:41:45;;;;;;;10.73;2.00;;;5.10;93.90;;;;;;2065169;28;20135;-89
2022/02/22 02:42:46;;;;;;;10.05;2.20;;;5.10;93.90;;;;;;2067772;28;20035;-89
2022/02/22 02:43:46;;;;;;;7.25;1.83;;;5.10;93.90;;;;;;2064237;28;20038;-89
2022/02/22 02:44:48;;;;;;;9.23;1.70;;;5.10;93.90;;;;;;2065026;28;20058;-89
2022/02/22 02:45:49;;;;;;;9.38;1.98;;;5.10;94.20;;;;;;2094875;28;20509;-89
2022/02/22 02:46:50;;;;;;;9.48;1.70;;;5.10;94.00;;;;;;2065344;28;20031;-90
2022/02/22 02:47:51;;;;;;;10.65;1.92;;;5.10;94.00;;;;;;2060765;28;20035;-89
2022/02/22 02:48:53;;;;;;;9.95;1.80;;;5.10;94.00;;;;;;2076330;28;20084;-90
2022/02/22 02:49:53;;;;;;;5.82;1.40;;;5.00;94.00;;;;;;2074251;28;20033;-89
2022/02/22 02:50:54;;;;;;;9.30;1.60;;;5.00;94.00;;;;;;2080365;28;20039;-90
2022/02/22 02:51:55;;;;;;;8.05;1.70;;;5.00;94.00;;;;;;2053529;28;20047;-89
2022/02/22 02:52:56;;;;;;;7.90;1.52;;;5.00;94.00;;;;;;2056693;28;20519;-90
2022/02/22 02:53:57;;;;;;;9.43;1.92;;;5.00;94.00;;;;;;2060045;28;20568;-89
2022/02/22 02:54:57;;;;;;;9.18;1.92;;;5.00;94.00;;;;;;2059391;28;20076;-88
2022/02/22 02:55:58;;;;;;;8.48;1.80;;;5.00;94.10;;;;;;2067938;28;20507;-89
2022/02/22 02:56:59;;;;;;;10.25;1.90;;;5.00;94.10;;;;;;2069046;28;20046;-89
2022/02/22 02:57:59;;;;;;;9.88;1.60;;;5.00;94.10;;;;;;2079732;28;20511;-90
2022/02/22 02:59:02;;;;;;;8.88;1.60;;;5.00;94.10;;;;;;2066473;28;20107;-90
2022/02/22 03:00:05;;;;;;;11.02;1.42;;;5.00;94.10;;;;;;2068182;28;20778;-90
2022/02/22 03:01:06;;;;;;;8.57;1.60;;;5.00;94.10;;;;;;2071531;28;20037;-89
2022/02/22 03:02:06;;;;;;;9.30;1.98;;;4.90;94.10;;;;;;2060462;28;20214;-89
2022/02/22 03:03:07;;;;;;;11.02;2.30;;;4.90;94.10;;;;;;2057951;28;20047;-89
2022/02/22 03:04:08;;;;;;;9.82;1.90;;;4.90;94.10;;;;;;2069769;28;20034;-89
2022/02/22 03:05:09;;;;;;;9.27;1.60;;;4.90;94.10;;;;;;2078944;28;20112;-90
2022/02/22 03:06:09;;;;;;;10.60;1.90;;;4.90;94.10;;;;;;2071660;28;20188;-90
2022/02/22 03:07:10;;;;;;;9.68;2.00;;;4.90;94.10;;;;;;2057817;28;20547;-89
2022/02/22 03:08:11;;;;;;;10.65;2.22;;;4.90;94.20;;;;;;2064645;28;20600;-89
2022/02/22 03:09:13;;;;;;;8.80;1.80;;;4.90;94.20;;;;;;2060664;28;20050;-89
2022/02/22 03:10:13;;;;;;;10.30;1.80;;;4.80;94.20;;;;;;2054502;28;20047;-89
2022/02/22 03:11:14;;;;;;;9.60;1.90;;;4.90;94.20;;;;;;2055080;28;20096;-89
2022/02/22 03:12:14;;;;;;;17.40;2.13;;;4.80;94.20;;;;;;2059860;28;20043;-89
2022/02/22 03:13:15;;;;;;;12.07;1.85;;;4.80;94.20;;;;;;2060440;28;20043;-89
2022/02/22 03:14:16;;;;;;;9.43;1.65;;;4.80;94.20;;;;;;2064236;28;20031;-89
2022/02/22 03:15:17;;;;;;;9.05;1.90;;;4.80;94.20;;;;;;2062619;28;20045;-89
2022/02/22 03:16:17;;;;;;;8.57;1.85;;;4.80;94.30;;;;;;2064554;28;20497;-89
2022/02/22 03:17:18;;;;;;;7.95;1.50;;;4.80;94.30;;;;;;2066363;28;20133;-89
2022/02/22 03:18:19;;;;;;;7.80;1.55;;;4.80;94.30;;;;;;2062956;28;20039;-89
2022/02/22 03:19:19;;;;;;;8.57;1.80;;;4.80;94.30;;;;;;2073343;28;20049;-89
2022/02/22 03:20:20;;;;;;;11.13;1.92;;;4.80;94.30;;;;;;2064028;28;20505;-89
2022/02/22 03:21:21;;;;;;;10.63;2.38;;;4.80;94.30;;;;;;2058051;28;20109;-89
2022/02/22 03:22:21;;;;;;;10.63;2.35;;;4.80;94.30;;;;;;2066860;28;20065;-89
2022/02/22 03:23:22;;;;;;;10.48;1.75;;;4.80;94.30;;;;;;2066786;28;20110;-90
2022/02/22 03:24:22;;;;;;;7.72;1.75;;;4.80;94.30;;;;;;2061906;28;20074;-90
2022/02/22 03:25:23;;;;;;;11.07;1.70;;;4.80;94.30;;;;;;2058672;28;20061;-90
2022/02/22 03:26:24;;;;;;;9.18;2.13;;;4.80;94.30;;;;;;2063879;28;20130;-89
2022/02/22 03:27:24;;;;;;;6.32;1.65;;;4.80;94.30;;;;;;2074861;28;20132;-89
2022/02/22 03:28:26;;;;;;;9.80;1.80;;;4.70;94.30;;;;;;2063436;28;20042;-89
2022/02/22 03:29:27;;;;;;;11.02;1.58;;;4.70;94.30;;;;;;2071931;28;20082;-89
2022/02/22 03:30:32;;;;;;;8.40;1.73;;;4.80;94.40;;;;;;2061894;28;20035;-89
2022/02/22 03:31:32;;;;;;;7.45;1.60;;;4.70;94.30;;;;;;2066927;28;20107;-89
2022/02/22 03:32:33;;;;;;;7.93;1.63;;;4.70;94.30;;;;;;2067353;28;20038;-89
2022/02/22 03:33:34;;;;;;;7.55;1.70;;;4.70;94.30;;;;;;2059470;28;20039;-89
2022/02/22 03:34:35;;;;;;;9.88;1.83;;;4.80;94.40;;;;;;2055585;28;20122;-90
2022/02/22 03:35:35;;;;;;;9.68;1.92;;;4.80;94.40;;;;;;2078482;28;20040;-89
2022/02/22 03:36:36;;;;;;;8.25;1.48;;;4.70;94.60;;;;;;2064279;28;20035;-89
2022/02/22 03:37:37;;;;;;;9.55;1.80;;;4.70;94.40;;;;;;2068389;28;20050;-89
2022/02/22 03:38:37;;;;;;;9.82;1.77;;;4.70;94.40;;;;;;2066355;28;20168;-89
2022/02/22 03:39:38;;;;;;;13.30;1.88;;;4.70;94.40;;;;;;2052649;28;20043;-89
2022/02/22 03:40:39;;;;;;;10.60;1.92;;;4.70;94.40;;;;;;2062068;28;20043;-90
2022/02/22 03:41:40;;;;;;;11.88;1.83;;;4.80;94.40;;;;;;2067413;28;20456;-89
2022/02/22 03:42:42;;;;;;;8.55;1.52;;;4.70;94.40;;;;;;2064386;28;21946;-89
2022/02/22 03:43:42;;;;;;;10.30;1.88;;;4.70;94.40;;;;;;2062949;28;20073;-89
2022/02/22 03:44:43;;;;;;;7.53;1.38;;;4.70;94.40;;;;;;2069265;28;20068;-89
2022/02/22 03:45:44;;;;;;;6.95;1.48;;;4.70;94.40;;;;;;2099816;28;20490;-89
2022/02/22 03:46:44;;;;;;;10.43;2.00;;;4.70;94.40;;;;;;2100754;28;20398;-90
2022/02/22 03:47:45;;;;;;;12.10;1.67;;;4.70;94.40;;;;;;2049607;28;20047;-89
2022/02/22 03:48:46;;;;;;;9.88;1.63;;;4.70;94.40;;;;;;2071336;28;20614;-89
2022/02/22 03:49:46;;;;;;;8.93;1.77;;;4.70;94.40;;;;;;2070602;28;20068;-89
2022/02/22 03:50:48;;;;;;;6.65;1.45;;;4.70;94.40;;;;;;2065130;28;20045;-89
2022/02/22 03:51:49;;;;;;;10.38;1.55;;;4.70;94.40;;;;;;2067825;28;20041;-89
2022/02/22 03:52:50;;;;;;;8.02;1.60;;;4.70;94.40;;;;;;2046793;28;20043;-89
2022/02/22 03:53:51;;;;;;;7.57;1.55;;;4.70;94.40;;;;;;2049409;28;20027;-89
2022/02/22 03:54:51;;;;;;;8.63;1.75;;;4.70;94.40;;;;;;2060609;28;20133;-88
2022/02/22 03:55:52;;;;;;;9.32;1.63;;;4.70;94.50;;;;;;2060147;28;20459;-89
2022/02/22 03:56:52;;;;;;;7.60;1.58;;;4.70;94.40;;;;;;2063215;28;20037;-89
2022/02/22 03:57:53;;;;;;;6.60;1.45;;;4.70;94.40;;;;;;2040710;29;20094;-90
2022/02/22 03:58:54;;;;;;;9.70;1.92;;;4.70;94.40;;;;;;2069987;28;20116;-89
2022/02/22 03:59:54;;;;;;;7.15;1.58;;;4.70;94.40;;;;;;2060522;28;20126;-89
2022/02/22 04:00:55;;;;;;;8.25;2.10;;;4.80;94.50;;;;;;2079568;28;20028;-89
2022/02/22 04:01:56;;;;;;;8.57;1.80;;;4.80;94.50;;;;;;2073884;28;20123;-89
2022/02/22 04:02:59;;;;;;;9.63;2.05;;;4.80;94.50;;;;;;2056482;28;20088;-89
2022/02/22 04:04:00;;;;;;;6.03;1.60;;;4.80;94.50;;;;;;2065587;28;20039;-89
2022/02/22 04:05:01;;;;;;;10.02;1.80;;;4.80;94.50;;;;;;2066188;28;20030;-88
2022/02/22 04:06:02;;;;;;;10.27;1.55;;;4.80;94.50;;;;;;2078574;28;20050;-89
2022/02/22 04:07:03;;;;;;;7.38;1.67;;;4.80;94.50;;;;;;2074849;28;20062;-89
2022/02/22 04:08:04;;;;;;;12.15;1.80;;;4.80;94.50;;;;;;2092611;28;20036;-88
2022/02/22 04:09:04;;;;;;;6.95;1.70;;;4.80;94.70;;;;;;2081416;28;20129;-89
2022/02/22 04:10:07;;;;;;;9.85;1.70;;;4.80;94.50;;;;;;2065549;28;20041;-89
2022/02/22 04:11:07;;;;;;;8.85;1.40;;;4.80;94.50;;;;;;2064230;28;20050;-89
2022/02/22 04:12:09;;;;;;;8.75;1.58;;;4.80;94.50;;;;;;2060696;28;20485;-89
2022/02/22 04:13:09;;;;;;;10.38;1.83;;;4.80;94.50;;;;;;2052364;28;20039;-89
2022/02/22 04:14:10;;;;;;;8.35;1.58;;;4.80;94.50;;;;;;2062689;28;20098;-89
2022/02/22 04:15:11;;;;;;;8.98;2.00;;;4.80;94.50;;;;;;2067681;28;20541;-89
2022/02/22 04:16:11;;;;;;;9.25;1.83;;;4.80;94.50;;;;;;2049465;28;20059;-89
2022/02/22 04:17:12;;;;;;;11.38;1.83;;;4.80;94.50;;;;;;2091463;28;20032;-89
2022/02/22 04:18:13;;;;;;;9.95;1.67;;;4.80;94.50;;;;;;2077781;28;20050;-89
2022/02/22 04:19:13;;;;;;;9.43;1.63;;;4.80;94.50;;;;;;2062776;28;20394;-89
2022/02/22 04:20:14;;;;;;;8.40;1.50;;;4.80;94.50;;;;;;2064521;28;20044;-89
2022/02/22 04:21:15;;;;;;;10.73;1.33;;;4.80;94.50;;;;;;2088725;28;20035;-90
2022/02/22 04:22:17;;;;;;;9.68;1.52;;;4.80;94.50;;;;;;2060331;28;20046;-89
2022/02/22 04:23:17;;;;;;;9.40;1.63;;;4.80;94.50;;;;;;2054565;28;20402;-89
2022/02/22 04:24:18;;;;;;;8.13;1.70;;;4.70;94.80;;;;;;2055244;28;20086;-89
2022/02/22 04:25:21;;;;;;;10.02;1.63;;;4.80;94.60;;;;;;2070433;28;20040;-89
2022/02/22 04:26:22;;;;;;;11.18;1.83;;;4.80;94.60;;;;;;2051163;28;20039;-89
2022/02/22 04:27:22;;;;;;;9.45;1.65;;;4.70;94.60;;;;;;2077196;28;20134;-88
2022/02/22 04:28:23;;;;;;;10.35;1.40;;;4.80;94.60;;;;;;2066862;28;20038;-89
2022/02/22 04:29:24;;;;;;;8.75;1.67;;;4.70;94.60;;;;;;2072467;28;20458;-89
2022/02/22 04:30:24;;;;;;;9.45;1.65;;;4.80;94.90;;;;;;2070419;28;20042;-88
2022/02/22 04:31:25;;;;;;;8.73;1.65;;;4.80;94.60;;;;;;2089952;28;20040;-89
2022/02/22 04:32:26;;;;;;;8.85;1.75;;;4.70;94.60;;;;;;2084641;28;20102;-89
2022/02/22 04:33:26;;;;;;;14.02;2.10;;;4.70;94.60;;;;;;2066836;28;20135;-89
2022/02/22 04:34:27;;;;;;;9.00;1.80;;;4.70;94.60;;;;;;2088123;28;20033;-89
2022/02/22 04:35:28;;;;;;;11.55;1.73;;;4.70;94.60;;;;;;2097238;28;20044;-89
2022/02/22 04:36:28;;;;;;;9.00;1.85;;;4.70;94.60;;;;;;2064600;28;20038;-89
2022/02/22 04:37:29;;;;;;;10.35;1.58;;;4.70;94.60;;;;;;2066911;28;20038;-89
2022/02/22 04:38:30;;;;;;;9.48;1.50;;;4.70;94.70;;;;;;2066432;28;20046;-89
2022/02/22 04:39:30;;;;;;;8.20;1.73;;;4.70;94.70;;;;;;2064368;28;20066;-90
2022/02/22 04:40:31;;;;;;;9.02;1.80;;;4.70;94.70;;;;;;2059156;28;20042;-89
2022/02/22 04:41:32;;;;;;;9.15;2.17;;;4.70;94.70;;;;;;2054977;28;20054;-89
2022/02/22 04:42:33;;;;;;;8.40;2.00;;;4.70;94.70;;;;;;2055888;28;20065;-90
2022/02/22 04:43:33;;;;;;;8.23;1.88;;;4.70;94.70;;;;;;2064395;28;20043;-89
2022/02/22 04:44:34;;;;;;;9.52;2.00;;;4.70;94.70;;;;;;2073481;28;20126;-89
2022/02/22 04:45:35;;;;;;;10.10;1.85;;;4.60;94.70;;;;;;2064081;28;20042;-90
2022/02/22 04:46:36;;;;;;;8.13;1.58;;;4.70;94.70;;;;;;2072606;28;20053;-89
2022/02/22 04:47:36;;;;;;;6.15;1.50;;;4.70;94.70;;;;;;2080808;28;20039;-89
2022/02/22 04:48:37;;;;;;;10.52;1.48;;;4.70;94.80;;;;;;2081277;28;20525;-89
2022/02/22 04:49:38;;;;;;;7.60;1.73;;;4.60;94.70;;;;;;2098098;28;20437;-89
2022/02/22 04:50:39;;;;;;;13.43;2.05;;;4.70;94.80;;;;;;2053723;28;20039;-89
2022/02/22 04:51:42;;;;;;;7.32;1.60;;;4.60;94.80;;;;;;2040212;28;20040;-90
2022/02/22 04:52:43;;;;;;;9.90;1.70;;;4.60;94.80;;;;;;2054324;28;20485;-89
2022/02/22 04:53:44;;;;;;;7.35;1.40;;;4.60;94.80;;;;;;2047842;28;20094;-89
2022/02/22 04:54:44;;;;;;;9.85;1.50;;;4.60;94.80;;;;;;2039354;28;20086;-89
2022/02/22 04:55:45;;;;;;;7.22;1.45;;;4.60;94.80;;;;;;2040648;28;20097;-89
2022/02/22 04:56:46;;;;;;;9.32;1.85;;;4.60;94.80;;;;;;2033692;28;20138;-89
2022/02/22 04:57:46;;;;;;;7.70;2.00;;;4.60;94.80;;;;;;2051224;28;20039;-89
2022/02/22 04:58:47;;;;;;;8.27;1.50;;;4.50;94.80;;;;;;2063960;28;20062;-89
2022/02/22 04:59:48;;;;;;;11.00;1.83;;;4.50;94.90;;;;;;2060329;28;20080;-90
2022/02/22 05:00:48;;;;;;;7.32;1.65;;;4.50;94.90;;;;;;2079116;28;20138;-89
2022/02/22 05:01:49;;;;;;;9.70;1.92;;;4.50;94.90;;;;;;2063038;28;20042;-89
2022/02/22 05:02:50;;;;;;;7.88;1.58;;;4.50;94.90;;;;;;2051533;28;20110;-89
2022/02/22 05:03:51;;;;;;;8.32;1.33;;;4.50;94.90;;;;;;2095767;28;20445;-89
2022/02/22 05:04:52;;;;;;;9.75;1.70;;;4.50;94.90;;;;;;2074067;28;20069;-89
2022/02/22 05:05:53;;;;;;;7.75;1.85;;;4.50;95.00;;;;;;2063201;28;20079;-89
2022/02/22 05:06:54;;;;;;;11.90;2.30;;;4.50;95.00;;;;;;2075886;28;20177;-89
2022/02/22 05:07:55;;;;;;;9.43;1.75;;;4.40;95.00;;;;;;2062971;28;20030;-89
2022/02/22 05:08:56;;;;;;;9.20;1.85;;;4.40;95.00;;;;;;2060700;28;20047;-89
2022/02/22 05:09:56;;;;;;;10.23;1.30;;;4.40;95.00;;;;;;2050997;28;20542;-89
2022/02/22 05:10:57;;;;;;;8.93;1.70;;;4.40;95.00;;;;;;2048370;28;20525;-89
2022/02/22 05:11:58;;;;;;;7.38;1.85;;;4.40;95.00;;;;;;2050392;28;20638;-90
2022/02/22 05:12:58;;;;;;;8.32;1.63;;;4.40;95.00;;;;;;2049168;28;20043;-89
2022/02/22 05:14:00;;;;;;;6.07;1.60;;;4.40;95.00;;;;;;2079556;28;20447;-89
2022/02/22 05:15:01;;;;;;;7.57;1.67;;;4.40;95.10;;;;;;2085691;28;20053;-88
2022/02/22 05:16:03;;;;;;;8.85;1.40;;;4.40;95.10;;;;;;2062319;28;20030;-89
2022/02/22 05:17:04;;;;;;;9.85;1.60;;;4.40;95.10;;;;;;2063686;28;20034;-89
2022/02/22 05:18:05;;;;;;;7.25;1.77;;;4.40;95.10;;;;;;2056302;28;20031;-89
2022/02/22 05:19:07;;;;;;;9.95;1.50;;;4.40;95.10;;;;;;2052833;28;20042;-89
2022/02/22 05:20:08;;;;;;;6.57;1.52;;;4.40;95.10;;;;;;2065061;28;20045;-89